createdAt,value
2022-12-23T00:01:02.954Z,90.33
2022-12-23T00:06:18.180Z,90.33
2022-12-23T00:11:29.017Z,90.29
2022-12-23T00:16:41.024Z,90.15
2022-12-23T00:21:50.831Z,90.18
2022-12-23T00:27:00.608Z,90.15
2022-12-23T00:32:10.327Z,90.08
2022-12-23T00:37:20.093Z,90.03
2022-12-23T00:42:47.414Z,89.97
2022-12-23T00:48:14.351Z,90.01
2022-12-23T00:53:24.609Z,89.91
2022-12-23T00:58:34.376Z,89.73
2022-12-23T01:04:01.389Z,89.71
2022-12-23T01:09:11.590Z,89.80
2022-12-23T01:14:21.747Z,89.71
2022-12-23T01:19:32.859Z,89.68
2022-12-23T01:24:42.635Z,89.58
2022-12-23T01:29:52.638Z,89.48
2022-12-23T01:35:02.283Z,89.41
2022-12-23T01:40:14.555Z,89.35
2022-12-23T01:45:29.982Z,89.38
2022-12-23T01:50:46.638Z,89.32
2022-12-23T01:56:01.006Z,89.33
2022-12-23T02:01:29.708Z,89.39
2022-12-23T02:07:01.721Z,89.30
2022-12-23T02:12:47.331Z,89.21
2022-12-23T02:18:13.879Z,89.21
2022-12-23T02:24:01.329Z,89.23
2022-12-23T02:29:46.724Z,89.29
2022-12-23T02:35:08.123Z,89.19
2022-12-23T02:40:30.681Z,89.12
2022-12-23T02:45:45.306Z,89.06
2022-12-23T02:50:58.408Z,88.97
2022-12-23T02:56:11.844Z,88.81
2022-12-23T03:01:24.979Z,88.69
2022-12-23T03:06:42.371Z,88.65
2022-12-23T03:12:07.281Z,88.55
2022-12-23T03:17:39.061Z,88.64
2022-12-23T03:23:02.748Z,88.78
2022-12-23T03:28:23.230Z,88.76
2022-12-23T03:33:37.743Z,88.76
2022-12-23T03:38:50.302Z,88.75
2022-12-23T03:44:05.839Z,88.72
2022-12-23T03:49:22.053Z,88.66
2022-12-23T03:54:42.615Z,88.75
2022-12-23T03:59:54.406Z,88.77
2022-12-23T04:05:22.357Z,88.76
2022-12-23T04:10:33.482Z,88.84
2022-12-23T04:15:45.835Z,88.88
2022-12-23T04:20:55.611Z,88.89
2022-12-23T04:26:05.344Z,88.90
2022-12-23T04:31:15.021Z,88.93
2022-12-23T04:36:24.656Z,88.90
2022-12-23T04:41:34.396Z,88.90
2022-12-23T04:46:44.463Z,88.86
2022-12-23T04:51:54.547Z,88.75
2022-12-23T04:57:04.296Z,88.68
2022-12-23T05:02:14.144Z,88.65
2022-12-23T05:07:24.280Z,88.63
2022-12-23T05:12:34.794Z,88.58
2022-12-23T05:17:44.672Z,88.59
2022-12-23T05:22:54.502Z,88.58
2022-12-23T05:28:04.535Z,88.70
2022-12-23T05:33:14.320Z,88.67
2022-12-23T05:38:24.139Z,88.69
2022-12-23T05:43:40.584Z,88.70
2022-12-23T05:48:55.091Z,88.58
2022-12-23T05:54:06.624Z,88.61
2022-12-23T05:59:16.579Z,88.54
2022-12-23T06:04:26.424Z,88.34
2022-12-23T06:09:36.209Z,88.33
2022-12-23T06:14:45.996Z,88.37
2022-12-23T06:19:55.629Z,88.35
2022-12-23T06:25:05.858Z,88.29
2022-12-23T06:30:17.176Z,88.17
2022-12-23T06:35:26.820Z,88.17
2022-12-23T06:40:36.702Z,88.14
2022-12-23T06:45:49.951Z,88.22
2022-12-23T06:50:59.754Z,88.19
2022-12-23T06:56:10.651Z,88.14
2022-12-23T07:01:20.487Z,88.11
2022-12-23T07:06:30.145Z,88.13
2022-12-23T07:11:39.732Z,88.07
2022-12-23T07:16:49.740Z,88.07
2022-12-23T07:21:59.557Z,88.00
2022-12-23T07:27:09.646Z,87.82
2022-12-23T07:32:19.356Z,87.86
2022-12-23T07:37:29.381Z,87.88
2022-12-23T07:42:47.134Z,87.92
2022-12-23T07:48:00.092Z,87.94
2022-12-23T07:53:09.949Z,87.94
2022-12-23T07:58:19.903Z,88.01
2022-12-23T08:03:29.724Z,88.11
2022-12-23T08:08:41.121Z,88.18
2022-12-23T08:13:53.191Z,88.11
2022-12-23T08:19:03.384Z,87.93
2022-12-23T08:24:13.953Z,87.98
2022-12-23T08:29:23.794Z,88.13
2022-12-23T08:34:34.542Z,88.11
2022-12-23T08:39:45.564Z,87.92
2022-12-23T08:44:55.644Z,87.89
2022-12-23T08:50:05.980Z,87.61
2022-12-23T08:55:16.071Z,87.59
2022-12-23T09:00:26.983Z,87.49
2022-12-23T09:05:40.634Z,87.54
2022-12-23T09:10:50.305Z,87.61
2022-12-23T09:16:00.207Z,87.63
2022-12-23T09:21:17.004Z,87.57
2022-12-23T09:26:30.320Z,87.66
2022-12-23T09:31:39.990Z,87.75
2022-12-23T09:36:55.076Z,87.80
2022-12-23T09:42:17.570Z,87.85
2022-12-23T09:47:31.102Z,87.81
2022-12-23T09:52:51.572Z,87.93
2022-12-23T09:58:09.402Z,88.11
2022-12-23T10:03:27.704Z,88.13
2022-12-23T10:08:43.408Z,88.11
2022-12-23T10:13:58.523Z,88.13
2022-12-23T10:19:15.674Z,88.11
2022-12-23T10:24:29.931Z,87.96
2022-12-23T10:29:40.388Z,87.88
2022-12-23T10:34:58.890Z,87.93
2022-12-23T10:40:22.690Z,87.79
2022-12-23T10:45:52.391Z,87.79
2022-12-23T10:51:06.747Z,87.86
2022-12-23T10:56:17.193Z,87.68
2022-12-23T11:01:28.711Z,87.83
2022-12-23T11:06:44.167Z,87.80
2022-12-23T11:12:06.656Z,87.79
2022-12-23T11:17:28.418Z,87.80
2022-12-23T11:22:38.468Z,87.75
2022-12-23T11:27:50.196Z,87.61
2022-12-23T11:33:00.538Z,87.33
2022-12-23T11:38:18.000Z,87.25
2022-12-23T11:43:29.578Z,87.36
2022-12-23T11:48:39.472Z,87.33
2022-12-23T11:53:49.582Z,87.22
2022-12-23T11:59:05.505Z,87.10
2022-12-23T12:04:26.330Z,87.04
2022-12-23T12:09:41.263Z,86.92
2022-12-23T12:14:55.402Z,86.82
2022-12-23T12:20:20.450Z,86.86
2022-12-23T12:25:44.498Z,86.90
2022-12-23T12:31:04.229Z,86.89
2022-12-23T12:36:22.918Z,86.84
2022-12-23T12:41:41.435Z,86.64
2022-12-23T12:46:57.628Z,86.73
2022-12-23T12:52:13.004Z,86.85
2022-12-23T12:57:25.146Z,86.76
2022-12-23T13:03:13.016Z,86.85
2022-12-23T13:09:01.683Z,86.88
2022-12-23T13:14:26.329Z,87.01
2022-12-23T13:19:49.677Z,87.00
2022-12-23T13:25:10.267Z,87.11
2022-12-23T13:30:21.835Z,87.02
2022-12-23T13:35:49.700Z,86.96
2022-12-23T13:41:08.368Z,87.06
2022-12-23T13:46:33.059Z,87.08
2022-12-23T13:51:55.020Z,87.16
2022-12-23T13:57:18.297Z,87.16
2022-12-23T14:02:54.651Z,87.19
2022-12-23T14:08:07.471Z,87.25
2022-12-23T14:13:24.741Z,87.21
2022-12-23T14:19:16.712Z,87.23
2022-12-23T14:25:04.060Z,87.21
2022-12-23T14:30:23.358Z,87.19
2022-12-23T14:36:15.769Z,87.21
2022-12-23T14:41:38.367Z,87.26
2022-12-23T14:47:01.803Z,87.20
2022-12-23T14:53:00.570Z,87.26
2022-12-23T14:58:49.252Z,87.40
2022-12-23T15:04:07.498Z,87.50
2022-12-23T15:09:28.281Z,87.51
2022-12-23T15:14:46.305Z,87.50
2022-12-23T15:20:03.877Z,87.56
2022-12-23T15:25:26.688Z,87.60
2022-12-23T15:30:48.974Z,87.63
2022-12-23T15:35:59.463Z,87.64
2022-12-23T15:41:19.093Z,87.70
2022-12-23T15:46:30.624Z,87.68
2022-12-23T15:52:07.260Z,87.64
2022-12-23T15:57:23.726Z,87.65
2022-12-23T16:08:30.288Z,87.70
2022-12-23T16:13:46.736Z,87.85
2022-12-23T16:18:57.994Z,87.90
2022-12-23T16:24:14.716Z,87.89
2022-12-23T16:29:25.061Z,87.90
2022-12-23T16:34:35.774Z,87.85
2022-12-23T16:39:46.348Z,87.88
2022-12-23T16:44:56.076Z,88.01
2022-12-23T16:50:06.712Z,88.07
2022-12-23T16:55:22.551Z,88.05
2022-12-23T17:00:32.416Z,88.03
2022-12-23T17:05:42.003Z,88.00
2022-12-23T17:10:52.129Z,88.07
2022-12-23T17:16:02.516Z,88.11
2022-12-23T17:21:24.738Z,88.24
2022-12-23T17:26:34.865Z,88.34
2022-12-23T17:31:46.072Z,88.38
2022-12-23T17:36:56.020Z,88.38
2022-12-23T17:42:06.347Z,88.49
2022-12-23T17:47:20.371Z,88.50
2022-12-23T17:52:30.371Z,88.59
2022-12-23T17:57:40.439Z,88.68
2022-12-23T18:02:50.961Z,88.57
2022-12-23T18:08:04.307Z,88.64
2022-12-23T18:13:22.557Z,88.61
2022-12-23T18:18:43.802Z,88.68
2022-12-23T18:23:58.955Z,88.70
2022-12-23T18:29:08.909Z,88.70
2022-12-23T18:34:21.337Z,88.78
2022-12-23T18:39:31.102Z,88.81
2022-12-23T18:44:40.941Z,88.83
2022-12-23T18:49:50.468Z,88.83
2022-12-23T18:55:00.365Z,88.90
2022-12-23T19:00:16.612Z,88.89
2022-12-23T19:05:30.241Z,88.96
2022-12-23T19:10:39.945Z,88.95
2022-12-23T19:15:50.204Z,89.00
2022-12-23T19:20:59.865Z,89.02
2022-12-23T19:26:10.049Z,89.01
2022-12-23T19:31:20.988Z,89.10
2022-12-23T19:36:31.268Z,89.14
2022-12-23T19:41:40.879Z,89.18
2022-12-23T19:46:51.742Z,89.18
2022-12-23T19:52:01.819Z,89.18
2022-12-23T19:57:11.690Z,89.20
2022-12-23T20:02:23.744Z,89.18
2022-12-23T20:07:33.449Z,89.18
2022-12-23T20:12:43.850Z,89.11
2022-12-23T20:17:53.766Z,89.14
2022-12-23T20:23:03.567Z,89.07
2022-12-23T20:28:13.452Z,89.10
2022-12-23T20:33:23.801Z,89.11
2022-12-23T20:38:35.010Z,89.10
2022-12-23T20:43:56.837Z,89.06
2022-12-23T20:49:15.227Z,89.03
2022-12-23T20:54:32.118Z,88.89
2022-12-23T20:59:43.600Z,88.74
2022-12-23T21:04:53.234Z,88.69
2022-12-23T21:10:03.153Z,88.66
2022-12-23T21:15:13.848Z,88.57
2022-12-23T21:20:24.246Z,88.50
2022-12-23T21:25:34.140Z,87.76
2022-12-23T21:30:45.070Z,87.08
2022-12-23T21:35:55.037Z,87.00
2022-12-23T21:41:11.182Z,86.49
2022-12-23T21:46:23.573Z,86.43
2022-12-23T21:51:39.996Z,86.46
2022-12-23T21:56:50.883Z,86.58
2022-12-23T22:02:01.073Z,86.57
2022-12-23T22:07:11.227Z,86.50
2022-12-23T22:12:20.904Z,86.44
2022-12-23T22:17:30.607Z,86.50
2022-12-23T22:22:40.175Z,86.46
2022-12-23T22:27:50.028Z,86.56
2022-12-23T22:33:00.028Z,86.35
2022-12-23T22:38:09.707Z,86.46
2022-12-23T22:43:19.725Z,86.56
2022-12-23T22:48:30.586Z,86.53
2022-12-23T22:53:40.672Z,86.63
2022-12-23T22:58:50.665Z,86.45
2022-12-23T23:04:03.397Z,86.35
2022-12-23T23:09:18.557Z,86.03
2022-12-23T23:14:28.473Z,86.07
2022-12-23T23:19:38.165Z,86.20
2022-12-23T23:24:48.323Z,86.11
2022-12-23T23:29:58.027Z,86.26
2022-12-23T23:35:10.851Z,86.21
2022-12-23T23:40:21.237Z,86.36
2022-12-23T23:45:31.946Z,86.29
2022-12-23T23:50:42.289Z,86.28
2022-12-23T23:55:51.997Z,85.99
